Time;durP1;ratioP1;P1;durP2;ratioP2;P2;SDS_P1;SDS_P2;PMS_P1;PMS_P2;Temp;Humidity;BMP_temperature;BMP_pressure;BME280_temperature;BME280_humidity;BME280_pressure;Samples;Min_cycle;Max_cycle;Signal;HPM_P1;HPM_P2
2021/12/28 00:02:10;;;;;;;107.93;62.60;;;;;;;6.33;95.34;98946.56;4993093;28;20198;-66
2021/12/28 00:04:37;;;;;;;106.00;63.30;;;;;;;6.39;95.54;98937.91;4993034;28;20683;-66
2021/12/28 00:07:04;;;;;;;116.67;64.63;;;;;;;6.32;94.82;98943.09;4993484;28;20194;-65
2021/12/28 00:09:30;;;;;;;115.80;63.07;;;;;;;6.34;95.24;98949.03;4992529;28;20641;-66
2021/12/28 00:11:57;;;;;;;105.73;61.90;;;;;;;6.29;95.67;98947.94;4992954;28;20202;-67
2021/12/28 00:14:33;;;;;;;107.90;60.63;;;;;;;6.24;95.84;98955.59;4992588;28;20199;-65
2021/12/28 00:19:46;;;;;;;100.03;58.70;;;;;;;6.24;96.27;98966.94;4993130;28;20191;-66
2021/12/28 00:22:12;;;;;;;101.50;61.00;;;;;;;6.08;96.48;98967.09;4992553;28;20568;-66
2021/12/28 00:24:39;;;;;;;104.10;60.93;;;;;;;6.06;97.42;98963.00;4992526;28;20666;-66
2021/12/28 00:27:06;;;;;;;107.33;63.70;;;;;;;6.10;97.67;98969.56;4993172;28;20195;-66
2021/12/28 00:29:33;;;;;;;130.10;65.93;;;;;;;5.98;97.04;98981.53;4992786;28;20222;-66
2021/12/28 00:32:01;;;;;;;117.13;65.70;;;;;;;5.84;97.16;98969.97;4993011;28;20192;-66
2021/12/28 00:34:28;;;;;;;116.47;66.27;;;;;;;5.64;97.50;98979.34;4992823;28;20249;-66
2021/12/28 00:36:54;;;;;;;114.90;64.93;;;;;;;5.71;98.43;98972.34;4992572;28;20736;-66
2021/12/28 00:39:21;;;;;;;116.50;66.77;;;;;;;5.78;97.90;98966.22;4992691;28;20194;-66
2021/12/28 00:41:48;;;;;;;118.37;67.30;;;;;;;5.78;96.54;98971.50;4992822;28;20219;-65
2021/12/28 00:44:15;;;;;;;117.93;64.27;;;;;;;5.72;96.49;98971.38;4991406;28;20721;-66
2021/12/28 00:46:42;;;;;;;116.20;65.40;;;;;;;5.74;97.04;98978.09;4991382;28;20289;-66
2021/12/28 00:49:10;;;;;;;104.50;59.13;;;;;;;5.79;97.61;98980.19;4991551;28;20246;-66
2021/12/28 00:51:37;;;;;;;112.33;63.30;;;;;;;5.79;97.29;98973.13;4992412;28;20265;-66
2021/12/28 00:54:04;;;;;;;112.20;63.33;;;;;;;5.83;97.37;98967.53;4992502;28;20277;-68
2021/12/28 00:56:31;;;;;;;98.63;59.20;;;;;;;5.85;96.96;98971.63;4992056;28;20202;-67
2021/12/28 00:58:58;;;;;;;104.77;59.73;;;;;;;5.81;96.79;98961.59;4992108;28;20241;-66
2021/12/28 01:01:24;;;;;;;103.17;57.53;;;;;;;5.76;97.21;98957.66;4992906;28;20222;-67
2021/12/28 01:03:51;;;;;;;95.83;53.80;;;;;;;5.82;97.77;98952.69;4991884;28;20258;-66
2021/12/28 01:06:19;;;;;;;94.93;56.50;;;;;;;5.88;97.63;98955.44;4992654;28;20190;-66
2021/12/28 01:08:46;;;;;;;93.93;54.63;;;;;;;5.89;97.46;98956.25;4992277;28;20742;-66
2021/12/28 01:11:13;;;;;;;98.77;55.97;;;;;;;5.87;96.50;98953.78;4992765;28;20265;-66
2021/12/28 01:13:39;;;;;;;91.07;54.00;;;;;;;5.88;96.95;98952.00;4992417;28;20195;-66
2021/12/28 01:16:06;;;;;;;92.00;54.17;;;;;;;5.88;95.62;98959.91;4992363;28;20245;-66
2021/12/28 01:18:33;;;;;;;89.33;48.90;;;;;;;5.86;96.15;98961.88;4992034;28;20585;-66
2021/12/28 01:21:00;;;;;;;80.63;48.33;;;;;;;5.91;96.22;98964.81;4993304;28;20280;-66
2021/12/28 01:23:28;;;;;;;76.83;45.03;;;;;;;5.87;96.77;98963.53;4995579;28;20626;-66
2021/12/28 01:25:54;;;;;;;71.87;45.70;;;;;;;5.91;97.18;98967.47;4995944;28;20191;-66
2021/12/28 01:28:21;;;;;;;70.90;44.07;;;;;;;5.91;96.69;98967.47;4995660;28;20199;-67
2021/12/28 01:30:48;;;;;;;72.73;43.77;;;;;;;5.92;97.14;98959.34;4996012;28;20650;-66
2021/12/28 01:33:14;;;;;;;66.93;42.10;;;;;;;5.97;97.02;98958.81;4995996;28;20198;-66
2021/12/28 01:35:41;;;;;;;68.37;43.23;;;;;;;5.96;96.07;98952.72;4995664;28;20352;-66
2021/12/28 01:38:09;;;;;;;70.60;42.53;;;;;;;6.00;96.53;98963.72;4995679;28;20194;-67
2021/12/28 01:40:39;;;;;;;75.77;44.60;;;;;;;6.01;96.31;98960.94;4995493;28;20650;-67
2021/12/28 01:43:11;;;;;;;69.27;42.70;;;;;;;6.04;96.14;98965.81;4995974;28;20191;-67
2021/12/28 01:45:42;;;;;;;66.80;42.17;;;;;;;6.09;96.77;98965.28;4995577;28;20250;-66
2021/12/28 01:48:10;;;;;;;65.47;43.07;;;;;;;6.13;97.08;98959.50;4995216;28;20245;-67
2021/12/28 01:50:37;;;;;;;69.83;44.67;;;;;;;6.18;96.92;98958.91;4995483;28;20198;-66
2021/12/28 01:53:05;;;;;;;63.83;40.90;;;;;;;6.21;96.77;98961.22;4995536;28;20194;-67
2021/12/28 01:55:33;;;;;;;65.97;42.43;;;;;;;6.24;96.92;98966.94;4995446;28;20194;-66
2021/12/28 01:58:01;;;;;;;63.60;43.17;;;;;;;6.16;96.20;98947.75;4995627;28;20194;-66
2021/12/28 02:00:28;;;;;;;68.70;42.43;;;;;;;6.16;96.84;98958.31;4995039;28;20227;-66
2021/12/28 02:02:55;;;;;;;63.63;40.93;;;;;;;6.19;96.75;98952.66;4995199;28;20257;-66
2021/12/28 02:05:21;;;;;;;56.07;40.63;;;;;;;6.21;97.22;98958.56;4995573;28;20198;-66
2021/12/28 02:07:48;;;;;;;60.47;40.80;;;;;;;6.22;97.08;98957.56;4995522;28;20269;-66
2021/12/28 02:10:16;;;;;;;64.00;41.33;;;;;;;6.27;97.73;98963.09;4995039;28;20197;-64
2021/12/28 02:12:42;;;;;;;66.57;41.07;;;;;;;6.32;98.31;98963.41;4994843;28;20202;-67
2021/12/28 02:15:13;;;;;;;66.80;41.07;;;;;;;6.35;98.13;98957.75;4994747;28;20201;-66
2021/12/28 02:17:41;;;;;;;75.87;43.93;;;;;;;6.41;98.10;98957.03;4994933;28;20195;-66
2021/12/28 02:20:11;;;;;;;63.30;42.67;;;;;;;6.45;98.20;98943.28;4995037;28;20198;-66
2021/12/28 02:22:38;;;;;;;62.90;41.97;;;;;;;6.47;97.19;98954.47;4994681;28;20217;-66
2021/12/28 02:25:06;;;;;;;63.43;42.33;;;;;;;6.52;97.28;98951.28;4994778;28;20626;-66
2021/12/28 02:27:34;;;;;;;69.10;43.10;;;;;;;6.50;96.88;98951.47;4994916;28;20259;-66
2021/12/28 02:30:01;;;;;;;64.50;42.17;;;;;;;6.53;97.49;98951.09;4994855;28;20278;-64
2021/12/28 02:32:30;;;;;;;71.47;42.57;;;;;;;6.60;97.25;98957.28;4993926;28;20203;-66
2021/12/28 02:34:57;;;;;;;62.57;42.40;;;;;;;6.69;97.40;98958.00;4994544;28;20190;-65
2021/12/28 02:37:26;;;;;;;72.17;44.23;;;;;;;6.72;96.54;98950.53;4994806;28;20195;-65
2021/12/28 02:39:53;;;;;;;66.33;43.23;;;;;;;6.74;95.42;98948.50;4994471;28;20225;-65
2021/12/28 02:42:24;;;;;;;66.90;42.77;;;;;;;6.78;96.10;98946.34;4994445;28;20306;-65
2021/12/28 02:44:58;;;;;;;69.97;44.60;;;;;;;6.78;94.80;98941.06;4994923;28;20186;-67
2021/12/28 02:47:25;;;;;;;67.47;44.67;;;;;;;6.80;94.69;98946.97;4994316;28;20214;-65
2021/12/28 02:49:51;;;;;;;71.87;44.40;;;;;;;6.82;94.90;98944.97;4994713;28;20263;-65
2021/12/28 02:52:18;;;;;;;80.93;46.93;;;;;;;6.83;94.79;98949.22;4994818;28;20198;-65
2021/12/28 02:54:47;;;;;;;77.53;48.20;;;;;;;6.77;93.46;98947.34;4994359;28;20194;-66
2021/12/28 02:57:14;;;;;;;74.03;45.87;;;;;;;6.72;93.88;98945.25;4994275;28;20251;-65
2021/12/28 02:59:51;;;;;;;70.53;44.73;;;;;;;6.73;94.32;98949.53;4994155;28;20192;-65
2021/12/28 03:02:18;;;;;;;69.70;44.03;;;;;;;6.71;94.18;98948.06;4994138;28;20212;-65
2021/12/28 03:04:46;;;;;;;71.43;45.13;;;;;;;6.65;93.27;98939.06;4994431;28;20194;-65
2021/12/28 03:07:13;;;;;;;75.73;45.50;;;;;;;6.65;92.75;98943.53;4993945;28;20202;-65
2021/12/28 03:09:40;;;;;;;65.80;42.70;;;;;;;6.59;91.94;98941.63;4994272;28;20259;-65
2021/12/28 03:12:10;;;;;;;70.97;44.67;;;;;;;6.57;92.04;98946.28;4994097;28;20285;-66
2021/12/28 03:14:37;;;;;;;86.80;52.53;;;;;;;6.41;93.21;98930.66;4993945;28;20772;-65
2021/12/28 03:17:06;;;;;;;94.20;54.13;;;;;;;6.38;94.67;98933.66;4993885;28;20197;-65
2021/12/28 03:19:32;;;;;;;80.00;49.97;;;;;;;6.36;94.33;98933.03;4993615;28;20198;-66
2021/12/28 03:21:59;;;;;;;80.20;47.90;;;;;;;6.33;94.22;98938.66;4993992;28;20281;-65
2021/12/28 03:24:27;;;;;;;81.97;49.87;;;;;;;6.35;94.42;98936.63;4993658;28;20195;-65
2021/12/28 03:26:54;;;;;;;82.50;49.53;;;;;;;6.26;93.21;98943.00;4993910;28;20205;-66
2021/12/28 03:29:23;;;;;;;80.73;47.77;;;;;;;6.16;93.79;98932.72;4993192;28;20749;-66
2021/12/28 03:31:50;;;;;;;83.43;49.30;;;;;;;6.14;94.17;98928.66;4994083;28;20191;-65
2021/12/28 03:34:17;;;;;;;74.87;47.13;;;;;;;6.10;93.93;98932.66;4993579;28;20194;-66
2021/12/28 03:36:44;;;;;;;77.93;46.63;;;;;;;6.09;93.93;98938.94;4993620;28;20259;-66
2021/12/28 03:39:11;;;;;;;83.83;50.43;;;;;;;5.90;93.78;98936.81;4993511;28;20199;-66
2021/12/28 03:41:39;;;;;;;89.27;54.40;;;;;;;5.79;94.80;98944.13;4993259;28;20292;-66
2021/12/28 03:44:06;;;;;;;93.40;53.97;;;;;;;5.73;95.87;98942.19;4993143;28;20202;-66
2021/12/28 03:46:35;;;;;;;90.90;51.77;;;;;;;5.58;96.41;98919.47;4993272;28;20229;-66
2021/12/28 03:49:02;;;;;;;81.27;49.60;;;;;;;5.76;96.04;98936.56;4994022;28;20198;-65
2021/12/28 03:51:29;;;;;;;86.27;50.43;;;;;;;5.73;95.43;98944.81;4993233;28;20670;-66
2021/12/28 03:53:56;;;;;;;82.00;49.37;;;;;;;5.63;95.41;98957.44;4993348;28;20259;-66
2021/12/28 03:56:23;;;;;;;84.17;50.97;;;;;;;5.60;95.46;98959.63;4993495;28;20262;-66
2021/12/28 03:58:50;;;;;;;80.43;51.73;;;;;;;5.57;94.56;98963.41;4993878;28;20195;-66
2021/12/28 04:01:20;;;;;;;90.77;52.53;;;;;;;5.47;94.48;98973.38;4992744;28;20780;-66
2021/12/28 04:03:49;;;;;;;80.90;49.07;;;;;;;5.36;95.33;98960.63;4993140;28;20194;-67
2021/12/28 04:06:19;;;;;;;90.20;50.50;;;;;;;5.33;96.09;98970.69;4993197;28;20254;-67
2021/12/28 04:08:45;;;;;;;77.87;48.43;;;;;;;5.23;96.39;98970.91;4993102;28;20199;-67
2021/12/28 04:14:00;;;;;;;73.10;44.97;;;;;;;5.03;97.21;98979.44;4993057;28;20271;-67
2021/12/28 04:16:29;;;;;;;77.00;44.30;;;;;;;4.91;97.30;98979.00;4993282;28;20190;-67
2021/12/28 04:18:58;;;;;;;70.50;43.87;;;;;;;4.78;97.59;98981.38;4992812;28;20244;-66
2021/12/28 04:21:24;;;;;;;70.07;45.17;;;;;;;4.78;97.96;98980.56;4992590;28;20280;-67
2021/12/28 04:23:51;;;;;;;72.33;45.27;;;;;;;4.77;97.41;98974.50;4992463;28;20732;-65
2021/12/28 04:26:20;;;;;;;73.33;44.63;;;;;;;4.57;97.54;98973.25;4992927;28;20194;-67
2021/12/28 04:28:46;;;;;;;73.10;42.77;;;;;;;4.39;98.47;98980.56;4992403;28;20244;-66
2021/12/28 04:31:13;;;;;;;72.03;41.73;;;;;;;4.29;98.38;98973.88;4993000;28;20226;-66
2021/12/28 04:33:41;;;;;;;65.53;40.47;;;;;;;4.30;99.27;98971.03;4993042;28;20194;-66
2021/12/28 04:36:12;;;;;;;57.80;38.67;;;;;;;4.33;99.63;98975.97;4992601;28;20278;-66
2021/12/28 04:38:39;;;;;;;69.37;40.47;;;;;;;4.36;99.50;98969.56;4992614;28;20218;-66
2021/12/28 04:41:06;;;;;;;65.03;40.77;;;;;;;4.42;100.00;98974.94;4992663;28;20195;-66
2021/12/28 04:43:33;;;;;;;65.97;39.00;;;;;;;4.47;99.63;98972.66;4992378;28;20581;-66
2021/12/28 04:46:00;;;;;;;58.90;37.77;;;;;;;4.50;98.14;98972.28;4992499;28;20620;-66
2021/12/28 04:48:27;;;;;;;66.57;38.80;;;;;;;4.48;97.53;98974.28;4993035;28;20194;-66
2021/12/28 04:50:54;;;;;;;64.33;39.93;;;;;;;4.53;97.49;98981.66;4992551;28;20202;-66
2021/12/28 04:53:22;;;;;;;70.37;41.87;;;;;;;4.56;97.29;98987.41;4991962;28;20222;-67
2021/12/28 04:55:50;;;;;;;72.30;42.07;;;;;;;4.58;96.95;98987.25;4993046;28;20260;-67
2021/12/28 04:58:19;;;;;;;67.27;40.40;;;;;;;4.61;96.86;98990.34;4996560;28;20253;-66
2021/12/28 05:00:47;;;;;;;62.87;40.13;;;;;;;4.64;96.47;98984.75;4996188;28;20198;-66
2021/12/28 05:03:15;;;;;;;69.73;39.80;;;;;;;4.68;96.47;98993.09;4995968;28;20241;-67
2021/12/28 05:05:44;;;;;;;62.47;39.30;;;;;;;4.66;95.98;98990.63;4995941;28;20233;-67
2021/12/28 05:08:11;;;;;;;58.70;37.93;;;;;;;4.61;95.82;98990.34;4996256;28;20252;-68
2021/12/28 05:10:40;;;;;;;61.63;38.83;;;;;;;4.62;96.26;98986.72;4996338;28;20248;-67
2021/12/28 05:13:07;;;;;;;61.70;39.63;;;;;;;4.61;95.80;98986.88;4996224;28;20194;-66
2021/12/28 05:15:34;;;;;;;61.97;38.17;;;;;;;4.63;95.81;98988.38;4996563;28;20620;-66
2021/12/28 05:18:01;;;;;;;55.00;37.23;;;;;;;4.56;96.07;98986.56;4996204;28;20256;-68
2021/12/28 05:20:28;;;;;;;63.13;39.17;;;;;;;4.43;95.65;98992.38;4996074;28;20194;-66
2021/12/28 05:22:55;;;;;;;58.27;38.10;;;;;;;4.36;96.22;98996.69;4995286;28;20280;-67
2021/12/28 05:25:22;;;;;;;58.90;38.03;;;;;;;4.41;97.10;98994.34;4995467;28;20194;-66
2021/12/28 05:27:50;;;;;;;60.57;38.97;;;;;;;4.37;97.42;99003.56;4995836;28;20260;-66
2021/12/28 05:30:17;;;;;;;64.27;39.57;;;;;;;4.41;96.99;98994.34;4995813;28;20755;-66
2021/12/28 05:32:44;;;;;;;74.50;46.23;;;;;;;4.43;95.91;99000.28;4995271;28;20245;-67
2021/12/28 05:35:11;;;;;;;114.30;65.23;;;;;;;4.40;95.67;98995.34;4995093;28;20195;-66
2021/12/28 05:37:38;;;;;;;127.57;72.53;;;;;;;4.48;95.21;99007.63;4995204;28;20218;-67
2021/12/28 05:40:07;;;;;;;121.97;65.70;;;;;;;4.47;94.94;99009.47;4995891;28;20194;-69
2021/12/28 05:42:34;;;;;;;116.97;62.03;;;;;;;4.46;94.44;99005.19;4995263;28;20230;-66
2021/12/28 05:45:03;;;;;;;99.97;56.70;;;;;;;4.46;94.37;99007.81;4995358;28;20736;-66
2021/12/28 05:47:30;;;;;;;75.97;46.97;;;;;;;4.46;94.32;99013.06;4995622;28;20194;-67
2021/12/28 05:49:56;;;;;;;71.63;44.77;;;;;;;4.32;94.59;99011.16;4995407;28;20195;-66
2021/12/28 05:52:24;;;;;;;67.57;43.17;;;;;;;4.04;98.50;99020.41;4995540;28;20248;-70
2021/12/28 05:54:50;;;;;;;74.23;45.80;;;;;;;4.10;99.52;99011.84;4995062;28;20190;-68
2021/12/28 05:57:17;;;;;;;83.83;50.07;;;;;;;4.16;99.86;99000.66;4995072;28;20248;-67
2021/12/28 05:59:44;;;;;;;80.93;49.07;;;;;;;4.27;99.27;99010.84;4995523;28;20194;-68
2021/12/28 06:02:12;;;;;;;92.20;54.83;;;;;;;4.35;99.49;99010.81;4995345;28;20223;-68
2021/12/28 06:04:39;;;;;;;91.90;53.80;;;;;;;4.44;98.86;99008.97;4995159;28;20265;-67
2021/12/28 06:07:06;;;;;;;103.80;58.43;;;;;;;4.54;98.87;99010.41;4993876;28;20214;-68
2021/12/28 06:09:32;;;;;;;129.23;72.80;;;;;;;4.54;98.39;99010.41;4994709;28;20202;-65
2021/12/28 06:11:59;;;;;;;122.00;68.07;;;;;;;4.62;97.85;99023.53;4995304;28;20253;-68
2021/12/28 06:14:26;;;;;;;125.87;69.00;;;;;;;4.73;97.93;99020.53;4995025;28;20253;-68
2021/12/28 06:16:53;;;;;;;138.53;79.00;;;;;;;4.84;97.33;99022.81;4994909;28;20199;-68
2021/12/28 06:19:21;;;;;;;125.13;74.30;;;;;;;4.91;96.89;99023.75;4994310;28;20195;-69
2021/12/28 06:21:47;;;;;;;123.83;70.23;;;;;;;4.85;96.57;99027.06;4994687;28;20249;-68
2021/12/28 06:24:14;;;;;;;119.97;68.37;;;;;;;4.91;97.99;99022.94;4994352;28;20678;-69
2021/12/28 06:26:41;;;;;;;156.80;86.93;;;;;;;5.02;98.12;99020.72;4994578;28;20195;-68
2021/12/28 06:29:08;;;;;;;216.37;115.00;;;;;;;5.11;96.89;99024.16;4994655;28;20245;-69
2021/12/28 06:31:35;;;;;;;193.40;106.00;;;;;;;5.14;95.92;99027.25;4993462;28;20195;-70
2021/12/28 06:34:04;;;;;;;163.47;89.97;;;;;;;5.12;96.03;99029.25;4983474;28;20198;-68
2021/12/28 06:36:32;;;;;;;191.17;104.60;;;;;;;5.24;96.93;99024.41;5005250;28;20197;-68
2021/12/28 06:38:59;;;;;;;231.20;127.73;;;;;;;5.28;96.96;99037.03;5013565;28;20336;-68
2021/12/28 06:41:26;;;;;;;230.73;131.30;;;;;;;5.46;97.03;99044.66;5000195;28;20273;-68
2021/12/28 06:43:53;;;;;;;237.97;137.30;;;;;;;5.58;96.23;99040.63;4992913;28;20222;-68
2021/12/28 06:46:20;;;;;;;225.27;127.33;;;;;;;5.67;95.07;99044.84;4993241;28;20253;-68
2021/12/28 06:48:47;;;;;;;250.73;136.90;;;;;;;5.77;95.16;99046.25;4990986;28;20258;-65
2021/12/28 06:51:14;;;;;;;190.70;114.20;;;;;;;5.78;93.80;99044.44;4974557;28;20571;-65
2021/12/28 06:53:42;;;;;;;191.67;107.50;;;;;;;5.81;95.38;99038.84;4974605;28;20199;-66
2021/12/28 06:56:09;;;;;;;160.70;94.10;;;;;;;5.99;96.14;99035.88;4974013;28;20551;-66
2021/12/28 06:58:36;;;;;;;136.20;79.20;;;;;;;6.29;96.47;99035.75;4973893;28;20621;-63
2021/12/28 07:01:04;;;;;;;143.17;83.83;;;;;;;6.68;96.14;99032.88;4974108;28;20192;-64
2021/12/28 07:03:31;;;;;;;150.20;85.47;;;;;;;7.04;94.89;99039.03;4973933;28;20706;-65
2021/12/28 07:05:57;;;;;;;58.93;39.57;;;;;;;7.32;92.79;99029.41;4977779;28;20195;-65
2021/12/28 07:08:24;;;;;;;47.37;33.93;;;;;;;7.62;92.53;99034.41;4993853;28;20560;-65
2021/12/28 07:10:53;;;;;;;39.47;29.57;;;;;;;8.00;90.94;99038.41;4993547;28;20658;-65
2021/12/28 07:13:20;;;;;;;44.63;29.93;;;;;;;8.27;89.33;99044.78;4993942;28;20198;-67
2021/12/28 07:15:47;;;;;;;41.70;31.73;;;;;;;8.50;88.86;99046.16;4993118;28;20670;-68
2021/12/28 07:18:14;;;;;;;49.40;34.40;;;;;;;8.77;91.06;99041.84;4993283;28;20256;-69
2021/12/28 07:20:40;;;;;;;53.73;35.27;;;;;;;8.91;86.85;99054.16;4993372;28;20268;-67
2021/12/28 07:23:07;;;;;;;48.07;35.53;;;;;;;8.96;85.27;99049.09;4993466;28;20276;-67
2021/12/28 07:25:34;;;;;;;53.13;35.93;;;;;;;9.10;84.72;99058.72;4993344;28;20195;-67
2021/12/28 07:28:02;;;;;;;51.83;33.37;;;;;;;9.17;86.32;99049.81;4992982;28;20245;-66
2021/12/28 07:30:29;;;;;;;65.93;42.53;;;;;;;9.45;84.48;99047.03;4993151;28;20297;-66
2021/12/28 07:32:55;;;;;;;56.10;37.43;;;;;;;9.81;82.82;99048.31;4992812;28;20284;-66
2021/12/28 07:35:22;;;;;;;51.23;35.40;;;;;;;10.10;80.84;99049.84;4993190;28;20276;-66
2021/12/28 07:37:49;;;;;;;43.10;31.17;;;;;;;10.39;80.69;99041.47;4992927;28;20257;-66
2021/12/28 07:40:16;;;;;;;45.97;32.43;;;;;;;10.44;78.46;99045.13;4992487;28;20191;-66
2021/12/28 07:42:43;;;;;;;44.50;31.43;;;;;;;10.53;79.13;99037.75;4991941;28;20281;-66
2021/12/28 07:45:12;;;;;;;47.83;32.00;;;;;;;10.68;78.82;99051.63;4992500;28;20668;-66
2021/12/28 07:47:39;;;;;;;42.73;33.80;;;;;;;10.76;78.98;99046.91;4992499;28;20199;-66
2021/12/28 07:50:09;;;;;;;44.80;34.13;;;;;;;10.84;79.26;99056.50;4992483;28;20664;-66
2021/12/28 07:52:35;;;;;;;40.67;30.43;;;;;;;10.87;78.10;99062.19;4992281;28;20678;-66
2021/12/28 07:55:03;;;;;;;39.57;30.07;;;;;;;10.84;78.65;99051.19;4991241;28;20199;-66
2021/12/28 07:57:30;;;;;;;39.17;31.07;;;;;;;10.73;78.44;99041.19;4990621;28;20221;-67
2021/12/28 07:59:57;;;;;;;42.30;31.27;;;;;;;11.02;78.33;99042.56;4990729;28;20228;-66
2021/12/28 08:02:25;;;;;;;54.23;35.17;;;;;;;11.19;77.17;99039.19;4990623;28;20196;-66
2021/12/28 08:04:52;;;;;;;47.90;33.70;;;;;;;11.47;76.46;99039.69;4990686;28;20195;-66
2021/12/28 08:07:19;;;;;;;40.37;30.40;;;;;;;11.73;74.80;99052.88;4990579;28;20659;-66
2021/12/28 08:09:45;;;;;;;43.80;32.70;;;;;;;11.80;75.88;99047.53;4991601;28;20204;-66
2021/12/28 08:12:12;;;;;;;42.57;30.60;;;;;;;11.91;76.58;99050.31;4992944;28;20199;-66
2021/12/28 08:14:39;;;;;;;43.27;32.83;;;;;;;12.14;75.58;99047.88;4992333;28;20696;-66
2021/12/28 08:17:05;;;;;;;44.03;32.90;;;;;;;12.41;74.12;99046.63;4992582;28;20199;-66
2021/12/28 08:19:34;;;;;;;39.53;28.80;;;;;;;12.62;73.47;99054.22;4992643;28;20195;-66
2021/12/28 08:22:00;;;;;;;35.60;26.63;;;;;;;12.95;72.70;99059.22;4993132;28;20230;-66
2021/12/28 08:24:29;;;;;;;29.53;21.67;;;;;;;13.33;71.38;99047.31;4992720;28;20280;-66
2021/12/28 08:26:55;;;;;;;28.03;21.77;;;;;;;13.63;70.57;99053.47;4992082;28;20202;-66
2021/12/28 08:29:22;;;;;;;27.20;22.40;;;;;;;13.86;69.28;99056.25;4991904;28;20201;-66
2021/12/28 08:31:49;;;;;;;23.93;19.73;;;;;;;13.89;68.58;99053.09;4991511;28;20245;-66
2021/12/28 08:34:15;;;;;;;26.20;20.73;;;;;;;13.64;69.25;99039.09;4992662;28;20261;-66
2021/12/28 08:36:44;;;;;;;28.53;21.97;;;;;;;13.48;69.81;99045.06;4992318;28;20711;-65
2021/12/28 08:39:10;;;;;;;27.23;21.00;;;;;;;13.34;70.76;99043.59;4992583;28;20264;-66
2021/12/28 08:41:37;;;;;;;35.40;24.57;;;;;;;13.57;71.21;99037.56;4976575;28;20283;-66
2021/12/28 08:44:04;;;;;;;34.73;24.80;;;;;;;13.79;70.43;99038.66;4972768;28;20305;-66
2021/12/28 08:46:31;;;;;;;21.87;17.33;;;;;;;14.04;68.76;99040.16;4972333;28;20246;-66
2021/12/28 08:48:58;;;;;;;18.67;16.67;;;;;;;14.27;68.49;99040.22;4972462;28;20730;-66
2021/12/28 08:51:24;;;;;;;18.57;16.60;;;;;;;14.51;67.19;99049.06;4972881;28;20191;-66
2021/12/28 08:53:52;;;;;;;20.80;17.50;;;;;;;14.78;66.18;99048.38;4972425;28;20667;-66
2021/12/28 08:56:19;;;;;;;18.83;15.27;;;;;;;14.97;65.23;99041.84;4972909;28;20200;-65
2021/12/28 08:58:46;;;;;;;20.53;16.30;;;;;;;14.82;65.93;99038.00;4972696;28;20195;-66
2021/12/28 09:01:13;;;;;;;19.60;15.53;;;;;;;14.92;66.22;99039.06;4972855;28;20195;-65
2021/12/28 09:03:40;;;;;;;15.73;14.17;;;;;;;14.85;66.15;99037.53;4972340;28;20698;-65
2021/12/28 09:06:06;;;;;;;14.83;13.27;;;;;;;14.81;66.44;99025.69;4972724;28;20641;-66
2021/12/28 09:08:33;;;;;;;18.63;14.93;;;;;;;14.53;66.70;99025.59;4972736;28;20195;-65
2021/12/28 09:11:02;;;;;;;17.43;15.60;;;;;;;14.58;66.92;99017.72;4972194;28;20697;-65
2021/12/28 09:13:28;;;;;;;18.57;15.40;;;;;;;14.81;65.84;99021.16;4972450;28;20195;-66
2021/12/28 09:15:55;;;;;;;18.53;16.20;;;;;;;15.07;65.22;99022.53;4972366;28;20631;-66
2021/12/28 09:18:22;;;;;;;20.47;16.47;;;;;;;15.02;65.36;99023.22;4972609;28;20270;-65
2021/12/28 09:20:50;;;;;;;19.20;16.23;;;;;;;15.00;65.61;99009.25;4972419;28;20196;-66
2021/12/28 09:23:17;;;;;;;18.80;16.43;;;;;;;15.09;65.75;99013.22;4972074;28;20231;-66
2021/12/28 09:25:43;;;;;;;21.60;17.10;;;;;;;15.03;66.16;99013.34;4972028;28;20733;-66
2021/12/28 09:28:11;;;;;;;21.73;17.80;;;;;;;15.17;65.68;98999.47;4972479;28;20191;-66
2021/12/28 09:30:40;;;;;;;19.40;17.37;;;;;;;15.37;65.41;98999.91;4971870;28;20290;-66
2021/12/28 09:33:07;;;;;;;19.27;16.17;;;;;;;15.42;64.29;99000.00;4971934;28;20640;-66
2021/12/28 09:35:34;;;;;;;22.73;18.83;;;;;;;15.40;64.84;99002.06;4972468;28;20250;-66
2021/12/28 09:38:00;;;;;;;25.00;20.57;;;;;;;15.41;65.64;98995.66;4972818;28;20257;-66
2021/12/28 09:40:28;;;;;;;27.67;19.83;;;;;;;15.56;65.51;98993.28;4978845;28;20198;-66
2021/12/28 09:42:55;;;;;;;22.43;18.03;;;;;;;15.73;65.23;98996.00;4994147;28;20190;-66
2021/12/28 09:45:23;;;;;;;20.53;16.83;;;;;;;15.93;64.88;98995.53;4995705;28;20195;-66
2021/12/28 09:47:50;;;;;;;16.17;14.43;;;;;;;16.04;64.81;98986.63;4995661;28;20261;-66
2021/12/28 09:50:17;;;;;;;13.63;12.43;;;;;;;16.17;65.00;98989.78;4995664;28;20253;-66
2021/12/28 09:52:48;;;;;;;13.90;12.40;;;;;;;16.18;64.30;98987.91;4996156;28;20198;-66
2021/12/28 09:55:16;;;;;;;14.40;12.33;;;;;;;16.07;64.62;98980.75;4995485;28;20249;-66
2021/12/28 09:57:45;;;;;;;14.03;12.57;;;;;;;15.80;64.99;98973.38;4995147;28;20257;-66
2021/12/28 10:00:14;;;;;;;14.90;13.50;;;;;;;15.60;65.18;98978.38;4995675;28;20253;-66
2021/12/28 10:02:43;;;;;;;16.53;14.83;;;;;;;15.36;66.68;98963.47;4994502;28;20571;-66
2021/12/28 10:05:12;;;;;;;13.70;12.40;;;;;;;15.25;66.86;98968.84;4993936;28;20231;-66
2021/12/28 10:07:45;;;;;;;15.10;13.57;;;;;;;14.99;68.37;98964.06;4994343;28;20190;-66
2021/12/28 10:10:12;;;;;;;16.23;13.77;;;;;;;14.93;67.89;98971.16;4994001;28;20650;-66
2021/12/28 10:12:42;;;;;;;18.67;15.57;;;;;;;14.88;68.95;98962.22;4993770;28;20219;-66
2021/12/28 10:15:12;;;;;;;23.83;16.97;;;;;;;14.85;69.20;98954.66;4994018;28;20202;-66
2021/12/28 10:17:41;;;;;;;18.73;14.90;;;;;;;14.84;69.01;98961.06;4993788;28;20215;-67
2021/12/28 10:20:14;;;;;;;19.77;15.87;;;;;;;14.78;68.45;98951.28;4994140;28;20253;-66
2021/12/28 10:22:44;;;;;;;18.73;16.27;;;;;;;14.68;69.25;98946.56;4994655;28;20190;-66
2021/12/28 10:25:14;;;;;;;27.13;20.30;;;;;;;14.69;69.61;98948.19;4994339;28;20298;-66
2021/12/28 10:27:43;;;;;;;23.40;19.33;;;;;;;14.76;69.07;98940.84;4994237;28;20250;-66
2021/12/28 10:30:14;;;;;;;23.53;18.23;;;;;;;14.93;69.43;98933.72;4994263;28;20651;-66
2021/12/28 10:32:43;;;;;;;17.07;15.03;;;;;;;14.98;69.52;98932.97;4995163;28;20183;-66
2021/12/28 10:35:14;;;;;;;36.03;21.83;;;;;;;15.07;68.44;98940.41;4994768;28;20202;-66
2021/12/28 10:37:45;;;;;;;22.23;18.27;;;;;;;15.13;68.11;98925.25;4994526;28;20642;-66
2021/12/28 10:40:15;;;;;;;23.03;17.27;;;;;;;15.16;68.99;98928.25;4989566;28;20231;-66
2021/12/28 10:42:46;;;;;;;18.53;15.80;;;;;;;15.05;68.92;98929.13;4974992;28;20195;-67
2021/12/28 10:45:16;;;;;;;26.60;18.43;;;;;;;15.14;69.13;98925.03;4974379;28;20215;-66
2021/12/28 10:47:43;;;;;;;20.53;17.13;;;;;;;15.27;68.79;98922.06;4975269;28;20200;-66
2021/12/28 10:50:31;;;;;;;19.97;15.83;;;;;;;15.40;68.00;98929.03;4974812;28;20195;-66
2021/12/28 10:53:07;;;;;;;27.23;18.20;;;;;;;15.52;68.00;98927.91;4974722;28;20195;-66
2021/12/28 10:55:35;;;;;;;21.23;14.70;;;;;;;15.39;67.20;98917.50;4974095;28;20222;-66
2021/12/28 10:58:03;;;;;;;47.03;26.00;;;;;;;15.41;67.95;98915.38;4974527;28;20195;-66
2021/12/28 11:00:32;;;;;;;24.73;18.27;;;;;;;15.40;67.40;98913.75;4974770;28;20659;-66
2021/12/28 11:03:26;;;;;;;20.20;16.97;;;;;;;15.31;67.73;98912.50;4974808;28;20226;-66
2021/12/28 11:05:56;;;;;;;25.87;17.20;;;;;;;15.22;68.07;98905.91;4974128;28;20215;-66
2021/12/28 11:08:25;;;;;;;19.17;15.23;;;;;;;15.26;68.38;98901.72;4974789;28;20191;-66
2021/12/28 11:10:54;;;;;;;17.47;15.13;;;;;;;15.31;68.42;98898.31;4974241;28;20195;-66
2021/12/28 11:13:23;;;;;;;16.87;15.07;;;;;;;15.37;68.21;98897.38;4974100;28;20250;-67
2021/12/28 11:15:50;;;;;;;40.57;23.83;;;;;;;15.49;67.36;98898.13;4974169;28;20258;-66
2021/12/28 11:18:20;;;;;;;51.77;27.17;;;;;;;15.59;67.73;98901.78;4974319;28;20195;-66
2021/12/28 11:20:47;;;;;;;29.43;20.07;;;;;;;15.72;66.48;98903.31;4973441;28;20742;-66
2021/12/28 11:23:17;;;;;;;24.07;18.83;;;;;;;15.80;66.26;98893.03;4973020;28;20246;-67
2021/12/28 11:25:43;;;;;;;19.67;16.73;;;;;;;15.86;65.80;98897.41;4972694;28;20198;-66
2021/12/28 11:28:19;;;;;;;27.57;17.03;;;;;;;15.93;65.65;98887.34;4972768;28;20196;-69
2021/12/28 11:31:02;;;;;;;21.73;16.60;;;;;;;16.02;65.28;98885.06;4974113;28;20296;-68